createdAt,value
2018-01-03T00:00:50.789Z,95.90
2018-01-03T00:03:17.262Z,95.80
2018-01-03T00:05:44.542Z,95.90
2018-01-03T00:08:11.814Z,96.00
2018-01-03T00:10:39.032Z,96.10
2018-01-03T00:13:05.499Z,96.00
2018-01-03T00:15:32.104Z,96.10
2018-01-03T00:17:59.378Z,96.30
2018-01-03T00:20:26.660Z,96.40
2018-01-03T00:22:53.211Z,96.40
2018-01-03T00:25:19.773Z,96.50
2018-01-03T00:27:46.957Z,96.70
2018-01-03T00:30:13.410Z,96.60
2018-01-03T00:32:39.872Z,96.70
2018-01-03T00:35:06.325Z,96.70
2018-01-03T00:37:32.796Z,96.80
2018-01-03T00:39:59.325Z,96.80
2018-01-03T00:42:25.783Z,96.90
2018-01-03T00:44:53.047Z,96.90
2018-01-03T00:47:20.258Z,96.90
2018-01-03T00:49:46.787Z,96.90
2018-01-03T00:52:13.968Z,96.80
2018-01-03T00:54:40.518Z,96.80
2018-01-03T00:57:07.792Z,96.80
2018-01-03T00:59:35.068Z,96.80
2018-01-03T01:02:02.503Z,96.80
2018-01-03T01:04:29.001Z,96.80
2018-01-03T01:06:56.276Z,96.70
2018-01-03T01:09:23.381Z,96.70
2018-01-03T01:11:53.591Z,96.70
2018-01-03T01:14:20.075Z,96.50
2018-01-03T01:16:46.602Z,96.40
2018-01-03T01:19:13.876Z,96.30
2018-01-03T01:21:41.150Z,96.20
2018-01-03T01:24:08.383Z,96.10
2018-01-03T01:26:34.817Z,96.10
2018-01-03T01:29:01.285Z,96.00
2018-01-03T01:31:27.771Z,95.90
2018-01-03T01:33:55.885Z,95.60
2018-01-03T01:36:23.118Z,95.50
2018-01-03T01:38:49.592Z,95.50
2018-01-03T01:41:16.066Z,95.40
2018-01-03T01:43:43.256Z,95.20
2018-01-03T01:46:09.732Z,95.20
2018-01-03T01:48:36.211Z,95.00
2018-01-03T01:51:02.771Z,94.90
2018-01-03T01:53:29.237Z,94.80
2018-01-03T01:55:55.684Z,94.80
2018-01-03T01:58:22.176Z,94.80
2018-01-03T02:00:49.406Z,94.70
2018-01-03T02:03:15.854Z,94.70
2018-01-03T02:05:42.333Z,94.60
2018-01-03T02:08:08.829Z,94.50
2018-01-03T02:10:36.127Z,94.20
2018-01-03T02:13:02.619Z,94.20
2018-01-03T02:15:29.113Z,94.10
2018-01-03T02:17:56.464Z,94.00
2018-01-03T02:20:22.932Z,94.00
2018-01-03T02:22:49.392Z,93.90
2018-01-03T02:25:16.604Z,93.60
2018-01-03T02:27:43.076Z,93.50
2018-01-03T02:30:09.541Z,93.60
2018-01-03T02:32:36.015Z,93.70
2018-01-03T02:35:02.496Z,93.80
2018-01-03T02:37:29.689Z,93.80
2018-01-03T02:39:56.159Z,93.80
2018-01-03T02:42:22.682Z,93.80
2018-01-03T02:44:49.883Z,93.80
2018-01-03T02:47:16.342Z,93.80
2018-01-03T02:49:42.815Z,93.80
2018-01-03T02:52:09.303Z,94.00
2018-01-03T02:54:35.953Z,94.00
2018-01-03T02:57:02.487Z,94.30
2018-01-03T02:59:29.125Z,93.90
2018-01-03T03:01:55.762Z,94.00
2018-01-03T03:04:23.116Z,94.10
2018-01-03T03:06:49.754Z,94.10
2018-01-03T03:09:16.391Z,94.00
2018-01-03T03:11:43.029Z,94.00
2018-01-03T03:14:10.303Z,94.00
2018-01-03T03:16:37.531Z,94.00
2018-01-03T03:19:04.175Z,94.00
2018-01-03T03:21:30.809Z,94.00
2018-01-03T03:23:57.444Z,94.00
2018-01-03T03:26:24.080Z,94.00
2018-01-03T03:28:50.716Z,94.10
2018-01-03T03:31:17.416Z,94.50
2018-01-03T03:33:44.812Z,94.20
2018-01-03T03:36:12.173Z,94.20
2018-01-03T03:38:38.801Z,94.20
2018-01-03T03:41:05.439Z,94.20
2018-01-03T03:43:32.076Z,94.30
2018-01-03T03:45:59.434Z,94.70
2018-01-03T03:48:26.066Z,94.70
2018-01-03T03:50:52.704Z,95.00
2018-01-03T03:53:19.240Z,95.00
2018-01-03T03:55:45.775Z,95.30
2018-01-03T03:58:12.409Z,95.50
2018-01-03T04:00:38.945Z,95.70
2018-01-03T04:03:05.581Z,95.80
2018-01-03T04:05:32.309Z,96.10
2018-01-03T04:07:59.266Z,96.20
2018-01-03T04:10:26.926Z,96.60
2018-01-03T04:12:53.564Z,96.70
2018-01-03T04:15:20.200Z,96.70
2018-01-03T04:17:47.555Z,96.90
2018-01-03T04:20:14.909Z,96.80
2018-01-03T04:22:41.545Z,97.00
2018-01-03T04:25:08.133Z,97.30
2018-01-03T04:27:34.719Z,97.40
2018-01-03T04:30:02.165Z,97.40
2018-01-03T04:32:28.810Z,97.40
2018-01-03T04:34:55.450Z,97.40
2018-01-03T04:37:22.074Z,97.50
2018-01-03T04:39:48.721Z,97.60
2018-01-03T04:42:15.563Z,97.90
2018-01-03T04:44:42.303Z,97.90
2018-01-03T04:47:08.940Z,98.00
2018-01-03T04:49:37.318Z,97.90
2018-01-03T04:52:04.262Z,97.90
2018-01-03T04:54:31.002Z,97.90
2018-01-03T04:56:57.641Z,97.90
2018-01-03T04:59:24.406Z,98.00
2018-01-03T05:01:50.955Z,97.90
2018-01-03T05:04:17.961Z,97.80
2018-01-03T05:06:44.457Z,97.70
2018-01-03T05:09:11.753Z,97.40
2018-01-03T05:11:38.309Z,97.50
2018-01-03T05:14:06.152Z,97.50
2018-01-03T05:16:32.620Z,97.50
2018-01-03T05:18:59.060Z,97.50
2018-01-03T05:21:25.493Z,97.50
2018-01-03T05:23:53.797Z,97.30
2018-01-03T05:26:21.273Z,97.40
2018-01-03T05:28:47.901Z,97.40
2018-01-03T05:31:14.401Z,97.50
2018-01-03T05:33:40.879Z,97.40
2018-01-03T05:36:07.550Z,97.60
2018-01-03T05:38:37.000Z,97.90
2018-01-03T05:41:03.558Z,97.90
2018-01-03T05:43:30.470Z,98.00
2018-01-03T05:45:56.980Z,98.00
2018-01-03T05:48:24.171Z,98.20
2018-01-03T05:50:51.201Z,98.20
2018-01-03T05:53:17.781Z,98.30
2018-01-03T05:55:44.593Z,98.40
2018-01-03T05:58:11.412Z,98.60
2018-01-03T06:00:37.970Z,98.70
2018-01-03T06:03:05.450Z,98.80
2018-01-03T06:05:31.958Z,98.90
2018-01-03T06:07:58.564Z,98.90
2018-01-03T06:10:25.080Z,98.90
2018-01-03T06:12:52.501Z,99.10
2018-01-03T06:15:19.469Z,99.10
2018-01-03T06:17:46.689Z,99.30
2018-01-03T06:20:13.204Z,99.30
2018-01-03T06:22:39.656Z,99.60
2018-01-03T06:25:06.168Z,99.70
2018-01-03T06:27:33.400Z,99.70
2018-01-03T06:29:59.949Z,99.70
2018-01-03T06:32:26.503Z,99.70
2018-01-03T06:34:53.219Z,99.70
2018-01-03T06:37:19.721Z,99.50
2018-01-03T06:39:47.105Z,99.40
2018-01-03T06:42:14.618Z,99.20
2018-01-03T06:44:41.141Z,99.40
2018-01-03T06:47:07.800Z,99.00
2018-01-03T06:49:35.011Z,98.90
2018-01-03T06:52:01.663Z,98.90
2018-01-03T06:54:28.712Z,98.90
2018-01-03T06:56:55.655Z,98.90
2018-01-03T06:59:24.240Z,98.90
2018-01-03T07:01:51.079Z,98.80
2018-01-03T07:04:18.184Z,98.80
2018-01-03T07:06:44.764Z,98.70
2018-01-03T07:09:11.810Z,98.90
2018-01-03T07:11:39.271Z,98.40
2018-01-03T07:14:07.235Z,98.70
2018-01-03T07:16:34.076Z,98.70
2018-01-03T07:19:00.714Z,98.70
2018-01-03T07:21:27.287Z,98.70
2018-01-03T07:23:54.704Z,98.80
2018-01-03T07:26:21.339Z,98.80
2018-01-03T07:28:48.904Z,98.90
2018-01-03T07:31:19.940Z,98.80
2018-01-03T07:33:46.986Z,98.80
2018-01-03T07:36:13.829Z,98.70
2018-01-03T07:38:40.875Z,98.60
2018-01-03T07:41:08.331Z,98.20
2018-01-03T07:43:35.889Z,98.20
2018-01-03T07:46:03.553Z,98.20
2018-01-03T07:48:30.394Z,98.20
2018-01-03T07:50:57.322Z,98.10
2018-01-03T07:53:24.691Z,98.10
2018-01-03T07:55:51.638Z,98.10
2018-01-03T07:58:18.273Z,98.00
2018-01-03T08:00:45.011Z,98.00
2018-01-03T08:03:11.853Z,98.10
2018-01-03T08:05:39.309Z,98.00
2018-01-03T08:08:06.254Z,98.00
2018-01-03T08:10:32.996Z,98.10
2018-01-03T08:12:59.736Z,98.20
2018-01-03T08:15:27.190Z,98.90
2018-01-03T08:17:54.545Z,99.30
2018-01-03T08:20:21.385Z,99.20
2018-01-03T08:22:48.434Z,99.30
2018-01-03T08:25:16.195Z,99.90
2018-01-03T08:27:43.858Z,99.90
2018-01-03T08:30:11.313Z,99.90
2018-01-03T08:32:38.872Z,99.90
2018-01-03T08:35:06.536Z,99.90
2018-01-03T08:37:34.299Z,99.90
2018-01-03T08:40:01.125Z,99.90
2018-01-03T08:42:27.762Z,99.90
2018-01-03T08:44:55.539Z,99.90
2018-01-03T08:47:22.894Z,99.90
2018-01-03T08:49:50.858Z,99.90
2018-01-03T08:52:19.040Z,99.90
2018-01-03T08:54:45.672Z,99.90
2018-01-03T08:58:04.431Z,99.90
2018-01-03T09:00:31.988Z,99.90
2018-01-03T09:02:58.731Z,99.90
2018-01-03T09:05:25.485Z,99.90
2018-01-03T09:07:52.310Z,99.90
2018-01-03T09:10:19.254Z,99.90
2018-01-03T09:12:47.734Z,99.90
2018-01-03T09:15:14.458Z,99.90
2018-01-03T09:17:41.625Z,99.90
2018-01-03T09:20:08.569Z,99.90
2018-01-03T09:22:36.330Z,99.90
2018-01-03T09:25:03.685Z,99.90
2018-01-03T09:27:30.523Z,99.90
2018-01-03T09:29:57.376Z,99.90
2018-01-03T09:32:24.096Z,99.90
2018-01-03T09:34:50.848Z,99.90
2018-01-03T09:37:17.576Z,99.90
2018-01-03T09:39:44.530Z,99.90
2018-01-03T09:42:11.561Z,99.90
2018-01-03T09:44:38.217Z,99.90
2018-01-03T09:47:04.831Z,99.90
2018-01-03T09:49:31.592Z,99.90
2018-01-03T09:51:58.739Z,99.90
2018-01-03T09:54:25.378Z,99.90
2018-01-03T09:56:52.020Z,99.90
2018-01-03T09:59:18.648Z,99.90
2018-01-03T10:01:45.903Z,99.90
2018-01-03T10:04:12.643Z,99.90
2018-01-03T10:06:39.279Z,99.90
2018-01-03T10:09:05.919Z,99.90
2018-01-03T10:11:32.556Z,99.90
2018-01-03T10:13:59.602Z,99.90
2018-01-03T10:16:26.240Z,99.90
2018-01-03T10:18:53.370Z,99.90
2018-01-03T10:21:20.229Z,99.90
2018-01-03T10:23:47.070Z,99.90
2018-01-03T10:26:13.811Z,99.90
2018-01-03T10:28:40.549Z,99.90
2018-01-03T10:31:07.385Z,99.90
2018-01-03T10:33:34.444Z,99.90
2018-01-03T10:36:01.384Z,99.60
2018-01-03T10:38:28.122Z,99.40
2018-01-03T10:40:54.761Z,98.70
2018-01-03T10:43:22.214Z,98.60
2018-01-03T10:45:48.955Z,98.60
2018-01-03T10:48:15.697Z,98.00
2018-01-03T10:50:42.513Z,97.50
2018-01-03T10:53:09.277Z,97.00
2018-01-03T10:55:36.220Z,96.70
2018-01-03T10:58:02.957Z,96.70
2018-01-03T11:00:29.596Z,96.50
2018-01-03T11:02:56.232Z,96.50
2018-01-03T11:05:23.588Z,96.90
2018-01-03T11:07:50.259Z,96.90
2018-01-03T11:10:17.579Z,97.00
2018-01-03T11:12:44.215Z,97.00
2018-01-03T11:15:11.570Z,97.10
2018-01-03T11:17:38.205Z,97.10
2018-01-03T11:20:04.946Z,97.20
2018-01-03T11:22:31.480Z,96.80
2018-01-03T11:24:58.809Z,96.20
2018-01-03T11:27:25.323Z,96.10
2018-01-03T11:29:51.784Z,95.90
2018-01-03T11:32:18.306Z,95.90
2018-01-03T11:34:45.558Z,96.00
2018-01-03T11:37:12.040Z,96.00
2018-01-03T11:39:39.332Z,96.40
2018-01-03T11:42:06.548Z,96.10
2018-01-03T11:44:33.004Z,96.10
2018-01-03T11:46:59.464Z,96.10
2018-01-03T11:49:25.956Z,96.10
2018-01-03T11:51:53.133Z,94.90
2018-01-03T11:54:20.329Z,94.60
2018-01-03T11:56:46.801Z,94.60
2018-01-03T11:59:13.037Z,94.40
2018-01-03T12:01:39.541Z,94.30
2018-01-03T12:04:06.041Z,94.40
2018-01-03T12:06:33.296Z,94.30
2018-01-03T12:09:01.368Z,94.00
2018-01-03T12:11:28.112Z,94.00
2018-01-03T12:13:54.748Z,94.00
2018-01-03T12:16:21.474Z,94.20
2018-01-03T12:18:48.041Z,94.30
2018-01-03T12:21:15.381Z,94.10
2018-01-03T12:23:42.115Z,94.00
2018-01-03T12:26:08.873Z,94.80
2018-01-03T12:28:35.596Z,93.90
2018-01-03T12:31:02.436Z,94.60
2018-01-03T12:33:29.278Z,94.60
2018-01-03T12:35:56.128Z,95.20
2018-01-03T12:38:22.953Z,95.70
2018-01-03T12:40:49.805Z,96.10
2018-01-03T12:43:16.646Z,96.70
2018-01-03T12:45:43.487Z,97.10
2018-01-03T12:48:10.211Z,97.20
2018-01-03T12:50:37.075Z,97.50
2018-01-03T12:53:03.913Z,97.60
2018-01-03T12:55:31.162Z,98.10
2018-01-03T12:57:57.696Z,98.10
2018-01-03T13:00:24.539Z,98.20
2018-01-03T13:02:51.177Z,98.40
2018-01-03T13:05:17.915Z,98.60
2018-01-03T13:07:45.371Z,98.60
2018-01-03T13:10:12.099Z,98.60
2018-01-03T13:12:38.742Z,98.80
2018-01-03T13:15:05.488Z,98.90
2018-01-03T13:17:32.022Z,98.90
2018-01-03T13:19:59.683Z,99.00
2018-01-03T13:22:27.447Z,99.30
2018-01-03T13:24:55.415Z,99.10
2018-01-03T13:27:22.871Z,99.10
2018-01-03T13:29:49.406Z,99.10
2018-01-03T13:32:16.044Z,99.00
2018-01-03T13:34:43.704Z,99.10
2018-01-03T13:37:11.368Z,99.20
2018-01-03T13:39:38.616Z,99.30
2018-01-03T13:42:05.458Z,99.20
2018-01-03T13:44:32.099Z,99.00
2018-01-03T13:46:59.137Z,98.80
2018-01-03T13:49:26.497Z,98.80
2018-01-03T13:51:53.337Z,98.80
2018-01-03T13:54:20.278Z,98.80
2018-01-03T13:56:48.142Z,98.60
2018-01-03T13:59:15.298Z,98.60
2018-01-03T14:01:41.935Z,98.50
2018-01-03T14:04:08.867Z,98.20
2018-01-03T14:06:36.437Z,98.00
2018-01-03T14:09:03.587Z,98.00
2018-01-03T14:11:30.637Z,97.80
2018-01-03T14:13:57.368Z,97.50
2018-01-03T14:16:25.034Z,97.40
2018-01-03T14:18:51.774Z,97.20
2018-01-03T14:21:18.516Z,97.40
2018-01-03T14:23:45.459Z,97.30
2018-01-03T14:26:13.154Z,97.20
2018-01-03T14:28:40.155Z,97.30
2018-01-03T14:31:08.092Z,97.10
2018-01-03T14:33:34.662Z,96.90
2018-01-03T14:36:01.410Z,96.90
2018-01-03T14:38:29.174Z,97.00
2018-01-03T14:40:56.012Z,97.00
2018-01-03T14:43:25.210Z,97.00
2018-01-03T14:45:51.846Z,97.00
2018-01-03T14:48:18.793Z,97.00
2018-01-03T14:50:46.965Z,97.20
2018-01-03T14:53:15.751Z,97.20
2018-01-03T14:55:42.394Z,97.20
2018-01-03T14:58:09.026Z,97.20
2018-01-03T15:00:36.864Z,97.20
2018-01-03T15:03:04.052Z,97.20
2018-01-03T15:05:30.780Z,97.20
2018-01-03T15:07:57.725Z,97.10
2018-01-03T15:10:24.455Z,97.00
2018-01-03T15:12:52.331Z,97.00
2018-01-03T15:15:20.503Z,97.20
2018-01-03T15:17:47.346Z,97.20
2018-01-03T15:20:14.291Z,97.20
2018-01-03T15:22:41.748Z,97.00
2018-01-03T15:25:09.510Z,97.00
2018-01-03T15:27:38.080Z,96.80
2018-01-03T15:30:05.037Z,96.80
2018-01-03T15:32:31.789Z,96.90
2018-01-03T15:34:59.231Z,96.70
2018-01-03T15:37:29.657Z,96.70
2018-01-03T15:39:56.686Z,96.60
2018-01-03T15:42:23.752Z,96.40
2018-01-03T15:44:51.514Z,96.50
2018-01-03T15:47:18.868Z,96.30
2018-01-03T15:49:46.530Z,96.30
2018-01-03T15:52:13.269Z,96.30
2018-01-03T15:54:40.111Z,96.30
2018-01-03T15:57:07.669Z,96.10
2018-01-03T15:59:35.637Z,96.10
2018-01-03T16:02:02.278Z,96.20
2018-01-03T16:04:29.096Z,96.50
2018-01-03T16:06:57.290Z,96.10
2018-01-03T16:09:24.848Z,96.10
2018-01-03T16:11:51.776Z,96.40
2018-01-03T16:14:19.455Z,96.10
2018-01-03T16:16:46.091Z,96.10
2018-01-03T16:19:12.933Z,96.20
2018-01-03T16:21:39.982Z,96.40
2018-01-03T16:24:06.618Z,96.50
2018-01-03T16:26:33.765Z,96.50
2018-01-03T16:29:01.324Z,96.70
2018-01-03T16:31:28.064Z,96.70
2018-01-03T16:33:54.702Z,96.80
2018-01-03T16:36:21.448Z,96.90
2018-01-03T16:38:49.084Z,97.00
2018-01-03T16:41:16.866Z,97.00
2018-01-03T16:43:44.321Z,96.90
2018-01-03T16:46:11.165Z,96.90
2018-01-03T16:48:37.992Z,96.80
2018-01-03T16:51:04.849Z,97.00
2018-01-03T16:53:31.790Z,97.00
2018-01-03T16:55:58.632Z,96.80
2018-01-03T16:58:25.577Z,96.70
2018-01-03T17:00:52.324Z,96.60
2018-01-03T17:03:20.696Z,96.40
2018-01-03T17:05:47.540Z,96.40
2018-01-03T17:08:14.276Z,96.20
2018-01-03T17:10:42.246Z,96.30
2018-01-03T17:13:10.570Z,96.60
2018-01-03T17:15:37.263Z,96.30
2018-01-03T17:18:03.998Z,96.20
2018-01-03T17:20:30.718Z,96.20
2018-01-03T17:22:57.378Z,96.00
2018-01-03T17:25:24.612Z,95.90
2018-01-03T17:27:51.472Z,95.90
2018-01-03T17:30:18.824Z,96.00
2018-01-03T17:32:46.159Z,96.00
2018-01-03T17:35:13.019Z,95.90
2018-01-03T17:37:40.049Z,96.00
2018-01-03T17:40:06.805Z,95.90
2018-01-03T17:42:33.835Z,95.80
2018-01-03T17:45:00.967Z,95.90
2018-01-03T17:47:28.253Z,95.90
2018-01-03T17:49:55.368Z,95.90
2018-01-03T17:52:23.063Z,96.00
2018-01-03T17:54:49.679Z,95.90
2018-01-03T17:57:16.439Z,95.90
2018-01-03T17:59:43.060Z,95.70
2018-01-03T18:02:09.713Z,95.70
2018-01-03T18:04:36.334Z,95.60
2018-01-03T18:07:03.400Z,95.70
2018-01-03T18:09:31.778Z,95.70
2018-01-03T18:11:58.364Z,95.70
2018-01-03T18:14:25.555Z,95.70
2018-01-03T18:16:52.367Z,95.50
2018-01-03T18:19:19.077Z,95.70
2018-01-03T18:21:45.883Z,95.70
2018-01-03T18:24:12.702Z,95.50
2018-01-03T18:26:39.463Z,95.50
2018-01-03T18:29:07.658Z,95.50
2018-01-03T18:31:35.298Z,95.50
2018-01-03T18:34:02.038Z,95.50
2018-01-03T18:36:28.886Z,95.50
2018-01-03T18:38:55.575Z,95.60
2018-01-03T18:41:22.258Z,95.70
2018-01-03T18:43:49.369Z,95.50
2018-01-03T18:46:16.759Z,95.60
2018-01-03T18:48:43.367Z,95.20
2018-01-03T18:51:10.441Z,95.30
2018-01-03T18:53:38.720Z,95.20
2018-01-03T18:56:05.663Z,95.20
2018-01-03T18:58:33.308Z,95.20
2018-01-03T19:01:01.697Z,95.20
2018-01-03T19:03:29.467Z,95.00
2018-01-03T19:05:56.414Z,94.70
2018-01-03T19:08:23.356Z,95.00
2018-01-03T19:10:50.910Z,95.00
2018-01-03T19:13:18.779Z,95.00
2018-01-03T19:15:46.541Z,95.00
2018-01-03T19:18:13.280Z,94.90
2018-01-03T19:20:40.532Z,95.00
2018-01-03T19:23:08.092Z,95.10
2018-01-03T19:25:34.932Z,95.10
2018-01-03T19:28:03.618Z,95.20
2018-01-03T19:30:30.152Z,95.20
2018-01-03T19:32:57.093Z,95.30
2018-01-03T19:35:24.553Z,95.30
2018-01-03T19:37:51.293Z,95.20
2018-01-03T19:40:18.646Z,95.20
2018-01-03T19:42:45.782Z,95.20
2018-01-03T19:45:12.944Z,95.20
2018-01-03T19:47:39.888Z,95.20
2018-01-03T19:50:07.759Z,95.10
2018-01-03T19:52:35.498Z,95.00
2018-01-03T19:55:02.668Z,95.00
2018-01-03T19:57:29.283Z,94.90
2018-01-03T19:59:56.249Z,94.90
2018-01-03T20:02:23.089Z,94.80
2018-01-03T20:04:50.533Z,94.80
2018-01-03T20:07:17.697Z,94.80
2018-01-03T20:09:45.766Z,94.90
2018-01-03T20:12:12.710Z,94.90
2018-01-03T20:14:40.268Z,94.80
2018-01-03T20:17:09.224Z,94.80
2018-01-03T20:19:37.171Z,94.70
2018-01-03T20:22:04.649Z,94.70
2018-01-03T20:24:32.133Z,94.50
2018-01-03T20:27:00.018Z,94.50
2018-01-03T20:29:29.853Z,94.40
2018-01-03T20:31:56.612Z,94.40
2018-01-03T20:34:23.660Z,94.40
2018-01-03T20:36:50.242Z,94.50
2018-01-03T20:39:16.758Z,94.40
2018-01-03T20:41:43.359Z,94.50
2018-01-03T20:44:10.581Z,94.60
2018-01-03T20:46:37.191Z,94.60
2018-01-03T20:49:03.989Z,94.60
2018-01-03T20:51:30.513Z,94.50
2018-01-03T20:53:58.822Z,94.40
2018-01-03T20:56:25.360Z,94.40
2018-01-03T20:58:52.644Z,94.20
2018-01-03T21:01:19.582Z,94.20
2018-01-03T21:03:47.233Z,93.80
2018-01-03T21:06:14.135Z,93.80
2018-01-03T21:08:40.943Z,93.90
2018-01-03T21:11:07.583Z,93.70
2018-01-03T21:13:35.061Z,93.80
2018-01-03T21:16:01.866Z,93.80
2018-01-03T21:18:28.335Z,93.90
2018-01-03T21:20:54.842Z,94.20
2018-01-03T21:23:21.401Z,94.50
2018-01-03T21:25:47.894Z,94.60
2018-01-03T21:28:14.412Z,94.60
2018-01-03T21:30:41.633Z,94.70
2018-01-03T21:33:08.625Z,94.70
2018-01-03T21:35:35.109Z,94.60
2018-01-03T21:38:02.328Z,94.60
2018-01-03T21:40:28.944Z,94.60
2018-01-03T21:42:58.186Z,94.70
2018-01-03T21:45:24.724Z,94.60
2018-01-03T21:47:51.279Z,94.60
2018-01-03T21:50:18.552Z,94.50
2018-01-03T21:52:45.829Z,94.50
2018-01-03T21:55:13.203Z,94.50
2018-01-03T21:57:40.410Z,94.80
2018-01-03T22:00:06.882Z,94.40
2018-01-03T22:02:33.918Z,94.40
2018-01-03T22:05:00.378Z,94.40
2018-01-03T22:07:26.916Z,94.50
2018-01-03T22:09:54.293Z,94.40
2018-01-03T22:12:20.810Z,94.40
2018-01-03T22:14:47.415Z,94.30
2018-01-03T22:17:13.970Z,94.40
2018-01-03T22:19:41.155Z,94.50
2018-01-03T22:22:07.636Z,94.50
2018-01-03T22:24:34.108Z,94.60
2018-01-03T22:27:00.534Z,94.40
2018-01-03T22:29:27.004Z,94.30
2018-01-03T22:31:53.525Z,94.20
2018-01-03T22:34:20.697Z,94.20
2018-01-03T22:36:47.929Z,94.20
2018-01-03T22:39:14.390Z,94.20
2018-01-03T22:41:40.865Z,94.40
2018-01-03T22:44:08.158Z,94.70
2018-01-03T22:46:35.385Z,94.40
2018-01-03T22:49:01.890Z,94.40
2018-01-03T22:51:29.162Z,94.60
2018-01-03T22:53:56.436Z,94.50
2018-01-03T22:56:23.713Z,94.50
2018-01-03T22:58:50.987Z,94.50
2018-01-03T23:01:18.263Z,94.50
2018-01-03T23:03:45.536Z,94.60
2018-01-03T23:06:12.094Z,94.60
2018-01-03T23:08:39.368Z,94.70
2018-01-03T23:11:06.643Z,94.80
2018-01-03T23:13:33.931Z,94.90
2018-01-03T23:16:00.457Z,94.90
2018-01-03T23:18:26.945Z,95.00
2018-01-03T23:20:53.419Z,95.10
2018-01-03T23:23:19.950Z,95.40
2018-01-03T23:25:46.506Z,95.60
2018-01-03T23:28:13.730Z,95.80
2018-01-03T23:30:40.301Z,95.80
2018-01-03T23:33:06.897Z,95.80
2018-01-03T23:35:34.172Z,95.80
2018-01-03T23:38:00.729Z,95.80
2018-01-03T23:40:28.004Z,95.60
2018-01-03T23:42:55.382Z,95.30
2018-01-03T23:45:22.614Z,95.30
2018-01-03T23:47:49.112Z,95.30
2018-01-03T23:50:16.386Z,95.10
2018-01-03T23:52:43.763Z,94.70
2018-01-03T23:55:11.037Z,94.60
2018-01-03T23:57:38.263Z,94.50
